Time;durP1;ratioP1;P1;durP2;ratioP2;P2;SDS_P1;SDS_P2;PMS_P1;PMS_P2;Temp;Humidity;BMP_temperature;BMP_pressure;BME280_temperature;BME280_humidity;BME280_pressure;Samples;Min_cycle;Max_cycle;Signal;HPM_P1;HPM_P2
2021/01/12 00:01:44;;;;;;;27.17;16.67;;;-0.60;99.90;;;;;;4955764;29;20086;-80
2021/01/12 00:04:10;;;;;;;33.38;17.45;;;-0.50;99.90;;;;;;4956974;28;20067;-80
2021/01/12 00:06:37;;;;;;;36.95;18.50;;;-0.50;99.90;;;;;;4955607;29;20080;-80
2021/01/12 00:09:05;;;;;;;31.90;18.27;;;-0.80;99.90;;;;;;4955600;29;20090;-79
2021/01/12 00:11:31;;;;;;;32.53;17.67;;;-0.90;99.90;;;;;;4955913;29;20027;-80
2021/01/12 00:13:57;;;;;;;33.47;17.92;;;-1.00;99.90;;;;;;4955497;29;20073;-79
2021/01/12 00:16:23;;;;;;;32.63;17.50;;;-1.10;99.90;;;;;;4955514;29;20030;-79
2021/01/12 00:18:49;;;;;;;33.13;18.30;;;-1.40;99.90;;;;;;4955349;29;20031;-79
2021/01/12 00:21:15;;;;;;;34.42;18.52;;;-1.40;99.90;;;;;;4956666;28;20046;-79
2021/01/12 00:23:41;;;;;;;36.03;17.60;;;-1.40;99.90;;;;;;4956620;28;20543;-79
2021/01/12 00:26:08;;;;;;;36.35;18.73;;;-1.30;99.90;;;;;;4955303;29;20114;-79
2021/01/12 00:28:34;;;;;;;30.95;17.55;;;-1.20;99.90;;;;;;4956735;28;20031;-79
2021/01/12 00:31:04;;;;;;;31.27;18.15;;;-1.20;99.90;;;;;;4956476;28;20034;-79
2021/01/12 00:33:31;;;;;;;34.28;18.35;;;-1.50;99.90;;;;;;4955160;29;20024;-79
2021/01/12 00:36:03;;;;;;;34.50;17.95;;;-1.40;99.90;;;;;;4956299;28;20019;-79
2021/01/12 00:38:29;;;;;;;35.17;18.65;;;-1.40;99.90;;;;;;4954913;29;20054;-78
2021/01/12 00:40:54;;;;;;;35.00;18.65;;;-1.90;99.90;;;;;;4955062;29;20027;-79
2021/01/12 00:43:20;;;;;;;33.28;17.73;;;-1.90;99.90;;;;;;4956169;29;20031;-79
2021/01/12 00:45:46;;;;;;;34.78;18.30;;;-1.60;99.90;;;;;;4956181;29;20023;-79
2021/01/12 00:48:11;;;;;;;34.08;18.52;;;-1.30;99.90;;;;;;4954582;28;20486;-79
2021/01/12 00:50:37;;;;;;;32.38;18.25;;;-1.50;99.90;;;;;;4954868;29;20185;-79
2021/01/12 00:53:03;;;;;;;35.28;17.52;;;-1.30;99.90;;;;;;4954788;28;20067;-79
2021/01/12 00:55:28;;;;;;;33.78;17.38;;;-1.20;99.90;;;;;;4954763;29;20390;-79
2021/01/12 00:57:54;;;;;;;31.80;17.35;;;-1.40;99.90;;;;;;4954673;29;20030;-79
2021/01/12 01:00:20;;;;;;;30.63;17.75;;;-1.30;99.90;;;;;;4954702;29;20031;-79
2021/01/12 01:02:46;;;;;;;29.83;17.13;;;-1.40;99.90;;;;;;4954642;29;20055;-79
2021/01/12 01:05:12;;;;;;;34.90;18.33;;;-1.40;99.90;;;;;;4954629;29;20032;-79
2021/01/12 01:07:37;;;;;;;29.88;16.73;;;-1.30;99.90;;;;;;4954469;28;20110;-79
2021/01/12 01:10:03;;;;;;;32.63;17.42;;;-1.50;99.90;;;;;;4956048;29;20054;-79
2021/01/12 01:12:29;;;;;;;31.77;17.33;;;-1.50;99.90;;;;;;4954428;29;20082;-79
2021/01/12 01:14:55;;;;;;;32.35;17.90;;;-1.50;99.90;;;;;;4954444;29;20031;-80
2021/01/12 01:17:20;;;;;;;33.45;17.08;;;-1.40;99.90;;;;;;4954399;29;20059;-79
2021/01/12 01:19:46;;;;;;;33.83;18.02;;;-1.20;99.90;;;;;;4955639;29;20039;-79
2021/01/12 01:22:12;;;;;;;33.30;17.10;;;-1.40;99.90;;;;;;4954397;29;20035;-79
2021/01/12 01:24:37;;;;;;;29.35;16.75;;;-1.20;99.90;;;;;;4954294;29;20028;-79
2021/01/12 01:27:03;;;;;;;31.35;17.67;;;-1.10;99.90;;;;;;4955461;29;20034;-79
2021/01/12 01:29:29;;;;;;;30.05;17.10;;;-1.10;99.90;;;;;;4954188;29;20478;-79
2021/01/12 01:31:54;;;;;;;29.20;16.02;;;-1.10;99.90;;;;;;4954209;29;20023;-79
2021/01/12 01:34:20;;;;;;;27.67;16.25;;;-1.00;99.90;;;;;;4955742;28;20106;-79
2021/01/12 01:36:46;;;;;;;30.98;16.52;;;-0.80;99.90;;;;;;4955340;28;20027;-79
2021/01/12 01:39:12;;;;;;;28.00;15.60;;;-0.70;99.90;;;;;;4955126;29;20055;-79
2021/01/12 01:41:37;;;;;;;27.88;14.88;;;-0.60;99.90;;;;;;4954163;29;20491;-79
2021/01/12 01:44:05;;;;;;;28.33;15.68;;;-0.80;99.90;;;;;;4954076;29;20391;-79
2021/01/12 01:46:31;;;;;;;26.23;15.57;;;-1.00;99.90;;;;;;4953885;29;20031;-79
2021/01/12 01:48:57;;;;;;;25.55;14.65;;;-1.00;99.90;;;;;;4954051;29;20024;-80
2021/01/12 01:51:23;;;;;;;28.48;14.77;;;-1.00;99.90;;;;;;4955539;29;20034;-79
2021/01/12 01:53:49;;;;;;;29.88;15.95;;;-0.90;99.90;;;;;;4953986;29;20530;-79
2021/01/12 01:56:16;;;;;;;24.90;14.57;;;-0.90;99.90;;;;;;4955510;28;20033;-79
2021/01/12 01:58:42;;;;;;;26.73;15.52;;;-1.10;99.90;;;;;;4953924;28;20034;-79
2021/01/12 02:01:11;;;;;;;29.63;15.75;;;-1.00;99.90;;;;;;4957727;29;20031;-79
2021/01/12 02:03:48;;;;;;;29.77;15.52;;;-1.00;99.90;;;;;;4959143;29;20023;-79
2021/01/12 02:06:28;;;;;;;28.60;15.57;;;-0.90;99.90;;;;;;4957915;29;20027;-80
2021/01/12 02:09:00;;;;;;;25.48;14.55;;;-0.80;99.90;;;;;;4957863;29;20031;-80
2021/01/12 02:11:29;;;;;;;28.27;14.45;;;-0.80;99.90;;;;;;4957800;29;20023;-79
2021/01/12 02:14:16;;;;;;;26.83;14.57;;;-0.80;99.90;;;;;;4958970;28;20082;-79
2021/01/12 02:16:44;;;;;;;26.27;14.23;;;-1.10;99.90;;;;;;4957702;29;20082;-79
2021/01/12 02:19:11;;;;;;;25.02;14.52;;;-0.90;99.90;;;;;;4957640;29;20050;-79
2021/01/12 02:22:03;;;;;;;26.48;14.27;;;-1.00;99.90;;;;;;4958165;29;20344;-80
2021/01/12 02:24:30;;;;;;;25.65;13.38;;;-0.90;99.90;;;;;;4957599;29;20027;-80
2021/01/12 02:26:56;;;;;;;24.38;13.68;;;-0.80;99.90;;;;;;4958664;28;20027;-80
2021/01/12 02:29:22;;;;;;;21.95;12.82;;;-0.80;99.90;;;;;;4957423;29;20538;-80
2021/01/12 02:31:48;;;;;;;20.67;12.77;;;-0.80;99.90;;;;;;4957422;29;20500;-79
2021/01/12 02:34:17;;;;;;;21.65;12.90;;;-0.80;99.90;;;;;;4958664;28;20493;-80
2021/01/12 02:36:45;;;;;;;22.95;12.57;;;-0.70;99.90;;;;;;4957265;28;20049;-80
2021/01/12 02:39:12;;;;;;;21.42;12.88;;;-0.70;99.90;;;;;;4957059;29;20043;-79
2021/01/12 02:41:39;;;;;;;23.10;13.10;;;-0.80;99.90;;;;;;4957278;29;20024;-79
2021/01/12 02:44:06;;;;;;;23.85;13.50;;;-1.00;99.90;;;;;;4958486;28;20155;-79
2021/01/12 02:46:32;;;;;;;21.40;12.68;;;-1.10;99.90;;;;;;4957102;28;20051;-80
2021/01/12 02:48:59;;;;;;;21.60;12.52;;;-1.10;99.90;;;;;;4957116;29;20054;-79
2021/01/12 02:51:25;;;;;;;22.20;13.00;;;-1.10;99.90;;;;;;4957035;29;20020;-79
2021/01/12 02:53:50;;;;;;;21.85;12.80;;;-1.00;99.90;;;;;;4958294;29;20024;-80
2021/01/12 02:56:23;;;;;;;21.35;12.18;;;-0.80;99.90;;;;;;4956910;28;20054;-80
2021/01/12 02:58:52;;;;;;;22.58;12.65;;;-0.60;99.90;;;;;;4956916;29;20042;-80
2021/01/12 03:01:20;;;;;;;21.52;12.65;;;-0.60;99.90;;;;;;4956847;29;20359;-80
2021/01/12 03:03:45;;;;;;;18.92;12.27;;;-0.60;99.90;;;;;;4956857;29;20411;-80
2021/01/12 03:06:11;;;;;;;24.17;12.05;;;-0.60;99.90;;;;;;4956788;29;20027;-80
2021/01/12 03:08:37;;;;;;;20.10;12.48;;;-0.70;99.90;;;;;;4956621;29;20023;-80
2021/01/12 03:11:03;;;;;;;20.75;12.35;;;-1.00;99.90;;;;;;4956600;28;20115;-79
2021/01/12 03:13:28;;;;;;;21.83;12.10;;;-0.90;99.90;;;;;;4956953;29;20086;-79
2021/01/12 03:15:54;;;;;;;20.75;12.48;;;-0.90;99.90;;;;;;4956607;29;20106;-80
2021/01/12 03:18:20;;;;;;;21.35;12.50;;;-0.70;99.90;;;;;;4956596;29;20023;-80
2021/01/12 03:20:46;;;;;;;19.85;12.63;;;-0.60;99.90;;;;;;4957968;29;20118;-81
2021/01/12 03:23:11;;;;;;;24.33;13.30;;;-0.50;99.90;;;;;;4957984;29;20487;-80
2021/01/12 03:25:37;;;;;;;20.30;12.05;;;-0.60;99.90;;;;;;4958261;28;20459;-80
2021/01/12 03:28:04;;;;;;;20.65;11.80;;;-0.40;99.90;;;;;;4956275;29;20502;-80
2021/01/12 03:30:29;;;;;;;24.25;11.98;;;-0.70;99.90;;;;;;4957589;28;20499;-80
2021/01/12 03:32:55;;;;;;;24.88;12.02;;;-0.60;99.90;;;;;;4957141;29;20059;-80
2021/01/12 03:35:21;;;;;;;22.20;11.88;;;-0.70;99.90;;;;;;4956271;29;20027;-79
2021/01/12 03:37:50;;;;;;;21.70;12.05;;;-0.90;99.90;;;;;;4956149;28;20046;-80
2021/01/12 03:40:17;;;;;;;21.92;11.38;;;-0.70;99.90;;;;;;4956744;29;20037;-80
2021/01/12 03:42:43;;;;;;;23.23;12.57;;;-0.60;99.90;;;;;;4956121;29;20027;-80
2021/01/12 03:45:09;;;;;;;20.85;12.18;;;-0.80;99.90;;;;;;4956052;29;20039;-80
2021/01/12 03:47:35;;;;;;;20.35;11.90;;;-0.80;99.90;;;;;;4957227;29;20439;-81
2021/01/12 03:50:02;;;;;;;21.15;12.30;;;-0.80;99.90;;;;;;4957232;29;20471;-80
2021/01/12 03:52:28;;;;;;;18.23;11.32;;;-0.80;99.90;;;;;;4957244;28;20023;-80
2021/01/12 03:54:54;;;;;;;24.50;12.48;;;-0.90;99.90;;;;;;4955929;29;20518;-79
2021/01/12 03:57:19;;;;;;;22.60;12.75;;;-0.90;99.90;;;;;;4955860;29;20058;-80
2021/01/12 03:59:45;;;;;;;21.95;12.10;;;-1.00;99.90;;;;;;4955854;29;20023;-80
2021/01/12 04:02:11;;;;;;;21.02;12.23;;;-1.00;99.90;;;;;;4955767;29;20130;-80
2021/01/12 04:04:36;;;;;;;23.30;12.50;;;-1.10;99.90;;;;;;4955745;29;20027;-79
2021/01/12 04:07:02;;;;;;;19.73;11.23;;;-1.20;99.90;;;;;;4955564;29;20058;-80
2021/01/12 04:09:28;;;;;;;21.80;11.18;;;-1.10;99.90;;;;;;4955698;29;20082;-79
2021/01/12 04:11:55;;;;;;;18.92;10.98;;;-0.90;99.90;;;;;;4955606;29;20023;-80
2021/01/12 04:14:20;;;;;;;17.10;10.48;;;-0.90;99.90;;;;;;4956828;28;20024;-80
2021/01/12 04:16:46;;;;;;;18.95;11.35;;;-0.80;99.90;;;;;;4955531;29;20030;-80
2021/01/12 04:19:12;;;;;;;20.90;11.27;;;-0.90;99.90;;;;;;4955448;29;20106;-80
2021/01/12 04:21:38;;;;;;;21.50;11.30;;;-0.90;99.90;;;;;;4955093;28;20390;-80
2021/01/12 04:24:04;;;;;;;15.23;9.02;;;-0.80;99.90;;;;;;4956475;29;20023;-80
2021/01/12 04:26:29;;;;;;;18.33;10.73;;;-0.90;99.90;;;;;;4956633;28;20031;-80
2021/01/12 04:28:55;;;;;;;17.83;10.02;;;-0.90;99.90;;;;;;4955210;29;20505;-80
2021/01/12 04:31:21;;;;;;;20.05;9.40;;;-0.80;99.90;;;;;;4955261;29;20027;-80
2021/01/12 04:33:46;;;;;;;15.18;9.15;;;-0.70;99.90;;;;;;4955183;29;20094;-79
2021/01/12 04:36:12;;;;;;;14.82;8.45;;;-0.60;99.90;;;;;;4956346;28;20106;-80
2021/01/12 04:38:38;;;;;;;16.60;9.20;;;-0.70;99.90;;;;;;4956441;28;20047;-80
2021/01/12 04:41:03;;;;;;;11.52;6.65;;;-0.60;99.90;;;;;;4956339;28;20087;-80
2021/01/12 04:43:29;;;;;;;16.35;9.30;;;-0.60;99.90;;;;;;4955010;29;20124;-80
2021/01/12 04:45:55;;;;;;;17.35;9.70;;;-0.50;99.90;;;;;;4954987;29;20027;-80
2021/01/12 04:48:20;;;;;;;16.52;8.82;;;-0.60;99.90;;;;;;4954822;29;20475;-80
2021/01/12 04:50:46;;;;;;;15.60;8.70;;;-0.40;99.90;;;;;;4954863;29;20024;-80
2021/01/12 04:53:12;;;;;;;15.68;9.05;;;-0.40;99.90;;;;;;4954878;29;20019;-80
2021/01/12 04:55:41;;;;;;;12.77;8.23;;;-0.30;99.90;;;;;;4954786;29;20023;-81
2021/01/12 04:58:07;;;;;;;13.35;8.30;;;-0.30;99.90;;;;;;4956014;28;20039;-80
2021/01/12 05:00:33;;;;;;;16.27;9.25;;;-0.30;99.90;;;;;;4954698;29;20027;-80
2021/01/12 05:03:03;;;;;;;15.85;8.27;;;-0.20;99.90;;;;;;4954662;29;20035;-80
2021/01/12 05:05:34;;;;;;;14.43;8.50;;;-0.30;99.90;;;;;;4955962;28;20383;-80
2021/01/12 05:08:10;;;;;;;12.85;7.82;;;-0.20;99.90;;;;;;4954561;29;20032;-80
2021/01/12 05:10:41;;;;;;;14.68;8.07;;;-0.30;99.90;;;;;;4955845;28;20102;-80
2021/01/12 05:13:12;;;;;;;13.50;8.13;;;-0.20;99.90;;;;;;4954557;29;20019;-80
2021/01/12 05:15:46;;;;;;;11.70;7.40;;;-0.20;99.90;;;;;;4954514;29;20049;-80
2021/01/12 05:18:17;;;;;;;13.82;8.40;;;-0.10;99.90;;;;;;4956014;28;20106;-80
2021/01/12 05:20:44;;;;;;;14.65;8.18;;;0.00;99.90;;;;;;4954388;29;20118;-80
2021/01/12 05:23:12;;;;;;;16.70;7.97;;;-0.10;99.90;;;;;;4954298;29;20086;-81
2021/01/12 05:25:39;;;;;;;11.88;7.10;;;0.00;99.90;;;;;;4955632;28;20478;-80
2021/01/12 05:28:10;;;;;;;13.07;7.53;;;0.10;99.90;;;;;;4954232;29;20498;-80
2021/01/12 05:30:37;;;;;;;12.90;7.43;;;0.10;99.90;;;;;;4954219;29;20134;-81
2021/01/12 05:33:03;;;;;;;13.27;8.27;;;0.10;99.90;;;;;;4954092;28;20114;-81
2021/01/12 05:35:30;;;;;;;17.20;9.23;;;-0.10;99.90;;;;;;4953447;29;20035;-80
2021/01/12 05:38:07;;;;;;;16.30;8.75;;;-0.20;99.90;;;;;;4954375;28;20352;-80
2021/01/12 05:40:38;;;;;;;15.40;9.27;;;-0.10;99.90;;;;;;4954113;29;20031;-81
2021/01/12 05:43:13;;;;;;;18.35;10.15;;;-0.10;99.90;;;;;;4955438;28;20483;-81
2021/01/12 05:45:43;;;;;;;16.10;9.10;;;-0.20;99.90;;;;;;4954161;29;20059;-80
2021/01/12 05:48:10;;;;;;;16.27;9.30;;;-0.20;99.90;;;;;;4953953;29;20047;-80
2021/01/12 05:50:37;;;;;;;17.08;9.52;;;-0.20;99.90;;;;;;4954025;29;20027;-80
2021/01/12 05:53:21;;;;;;;20.30;9.73;;;-0.30;99.90;;;;;;4955269;28;20415;-81
2021/01/12 05:55:55;;;;;;;17.00;9.20;;;-0.20;99.90;;;;;;4954020;29;20105;-82
2021/01/12 05:58:29;;;;;;;17.92;8.98;;;-0.30;99.90;;;;;;4938181;29;20042;-80
2021/01/12 06:00:58;;;;;;;16.83;9.73;;;-0.20;99.90;;;;;;4953718;29;20170;-81
2021/01/12 06:03:28;;;;;;;16.88;9.80;;;-0.20;99.90;;;;;;4954184;29;20034;-80
2021/01/12 06:05:55;;;;;;;21.55;10.00;;;-0.10;99.90;;;;;;4953744;29;20027;-81
2021/01/12 06:08:21;;;;;;;17.67;10.02;;;0.00;99.90;;;;;;4953721;29;20078;-80
2021/01/12 06:10:47;;;;;;;17.05;10.02;;;-0.20;99.90;;;;;;4955137;28;20027;-80
2021/01/12 06:13:16;;;;;;;18.45;9.77;;;-0.40;99.90;;;;;;4955104;28;20046;-80
2021/01/12 06:15:48;;;;;;;19.85;9.90;;;-0.40;99.90;;;;;;4955313;28;20023;-80
2021/01/12 06:18:16;;;;;;;16.13;9.35;;;-0.40;99.90;;;;;;4953804;29;20031;-80
2021/01/12 06:20:53;;;;;;;17.55;10.68;;;-0.40;99.90;;;;;;4953756;29;20475;-80
2021/01/12 06:23:44;;;;;;;19.15;9.98;;;-0.30;99.90;;;;;;4953734;29;20035;-80
2021/01/12 06:26:12;;;;;;;21.40;10.55;;;-0.30;99.90;;;;;;4953718;29;20125;-81
2021/01/12 06:28:40;;;;;;;20.33;11.60;;;-0.30;99.90;;;;;;4953627;29;20114;-80
2021/01/12 06:31:12;;;;;;;20.02;10.35;;;-0.40;99.90;;;;;;4953690;29;20549;-80
2021/01/12 06:33:38;;;;;;;18.95;11.43;;;-0.50;99.90;;;;;;4953679;29;20027;-80
2021/01/12 06:36:06;;;;;;;23.35;11.52;;;-0.50;99.90;;;;;;4954840;28;20035;-80
2021/01/12 06:38:37;;;;;;;20.67;11.70;;;-0.40;99.90;;;;;;4954529;28;20050;-80
2021/01/12 06:41:09;;;;;;;18.55;11.18;;;-0.50;99.90;;;;;;4937669;29;20031;-81
2021/01/12 06:43:35;;;;;;;23.42;11.77;;;-0.40;99.90;;;;;;4954904;28;20452;-81
2021/01/12 06:46:02;;;;;;;20.58;11.23;;;-0.40;99.90;;;;;;4955669;28;20077;-81
2021/01/12 06:48:31;;;;;;;22.23;11.38;;;-0.50;99.90;;;;;;4957027;29;20479;-80
2021/01/12 06:51:01;;;;;;;22.58;11.57;;;-0.60;99.90;;;;;;4957025;29;20029;-81
2021/01/12 06:53:30;;;;;;;20.42;11.27;;;-0.70;99.90;;;;;;4941435;29;20027;-81
2021/01/12 06:56:06;;;;;;;21.83;12.07;;;-0.70;99.90;;;;;;4956990;29;20034;-81
2021/01/12 06:58:32;;;;;;;18.85;10.52;;;-0.60;99.90;;;;;;4956887;29;20028;-81
2021/01/12 07:01:04;;;;;;;22.58;12.95;;;-0.40;99.90;;;;;;4957219;29;20386;-81
2021/01/12 07:03:31;;;;;;;21.50;10.77;;;-0.40;99.90;;;;;;4956842;29;20031;-81
2021/01/12 07:06:03;;;;;;;21.25;12.07;;;-0.50;99.90;;;;;;4957967;28;20475;-81
2021/01/12 07:08:30;;;;;;;26.17;15.35;;;-0.40;99.90;;;;;;4940745;29;20060;-82
2021/01/12 07:11:03;;;;;;;21.05;11.15;;;-0.40;99.90;;;;;;4956953;29;20023;-80
2021/01/12 07:13:42;;;;;;;21.63;11.82;;;-0.30;99.90;;;;;;4957987;28;20106;-81
2021/01/12 07:16:14;;;;;;;22.10;12.40;;;-0.40;99.90;;;;;;4957941;28;20023;-81
2021/01/12 07:18:43;;;;;;;25.02;12.60;;;-0.40;99.90;;;;;;4956514;29;20031;-81
2021/01/12 07:21:13;;;;;;;18.35;10.40;;;-0.40;99.90;;;;;;4956471;29;20027;-80
2021/01/12 07:23:40;;;;;;;17.48;9.65;;;-0.20;99.90;;;;;;4956516;29;20031;-81
2021/01/12 07:26:07;;;;;;;19.75;9.13;;;-0.10;99.90;;;;;;4956412;29;20034;-81
2021/01/12 07:28:34;;;;;;;15.48;9.60;;;-0.10;99.90;;;;;;4956306;29;20435;-81
2021/01/12 07:30:59;;;;;;;16.77;9.32;;;-0.10;99.90;;;;;;4956273;29;20479;-81
2021/01/12 07:33:29;;;;;;;22.15;9.57;;;-0.10;99.90;;;;;;4956212;29;20041;-81
2021/01/12 07:35:58;;;;;;;18.40;9.25;;;0.00;99.90;;;;;;4956774;28;20023;-81
2021/01/12 07:38:30;;;;;;;17.80;10.32;;;0.20;99.90;;;;;;4955972;29;20051;-81
2021/01/12 07:40:58;;;;;;;16.45;10.02;;;0.10;99.90;;;;;;4956195;29;20351;-81
2021/01/12 07:43:26;;;;;;;16.20;8.15;;;0.10;99.90;;;;;;4957400;28;20023;-80
2021/01/12 07:45:54;;;;;;;15.27;9.25;;;0.10;99.90;;;;;;4955979;29;20391;-81
2021/01/12 07:48:20;;;;;;;21.50;9.63;;;0.10;99.90;;;;;;4940113;29;20036;-86
2021/01/12 07:50:49;;;;;;;13.70;9.05;;;0.10;99.90;;;;;;4955870;29;20081;-82
2021/01/12 07:53:15;;;;;;;16.98;9.60;;;0.20;99.90;;;;;;4955919;29;20023;-81
2021/01/12 07:55:42;;;;;;;13.93;8.27;;;0.10;99.90;;;;;;4955857;29;20540;-80
2021/01/12 07:58:09;;;;;;;11.23;7.40;;;0.10;99.90;;;;;;4956940;28;20375;-91
2021/01/12 08:00:35;;;;;;;16.00;8.27;;;0.20;99.90;;;;;;4958523;29;20039;-90
2021/01/12 08:03:01;;;;;;;14.75;8.60;;;0.30;99.90;;;;;;4959796;28;20419;-92
2021/01/12 08:05:27;;;;;;;13.77;7.32;;;0.30;99.90;;;;;;4958669;29;20058;-90
2021/01/12 08:08:00;;;;;;;12.68;7.63;;;0.30;99.90;;;;;;4959448;28;20027;-91
2021/01/12 08:10:26;;;;;;;13.37;7.07;;;0.30;99.90;;;;;;4958276;29;20114;-91
2021/01/12 08:13:11;;;;;;;8.27;5.10;;;0.40;99.90;;;;;;4958099;29;20055;-91
2021/01/12 08:15:40;;;;;;;11.20;6.07;;;0.50;99.90;;;;;;4959397;28;20407;-91
2021/01/12 08:18:16;;;;;;;10.73;5.85;;;0.50;99.90;;;;;;4960479;28;20375;-90
2021/01/12 08:20:43;;;;;;;10.23;4.97;;;0.60;99.90;;;;;;4959109;29;20031;-91
2021/01/12 08:23:16;;;;;;;10.10;5.05;;;0.70;99.90;;;;;;4960015;29;20038;-91
2021/01/12 08:25:42;;;;;;;7.60;3.78;;;0.70;99.90;;;;;;4960339;29;20043;-90
2021/01/12 08:28:09;;;;;;;6.25;4.13;;;0.80;99.90;;;;;;4958004;29;20454;-90
2021/01/12 08:30:36;;;;;;;6.43;3.95;;;0.90;99.90;;;;;;4958814;29;20024;-91
2021/01/12 08:33:08;;;;;;;4.40;3.15;;;0.90;99.90;;;;;;4958841;29;20034;-90
2021/01/12 08:35:38;;;;;;;6.05;3.40;;;1.00;99.90;;;;;;4959259;29;20031;-91
2021/01/12 08:38:07;;;;;;;2.97;1.98;;;1.10;99.90;;;;;;4958410;28;20023;-90
2021/01/12 08:40:34;;;;;;;3.33;2.33;;;1.10;99.90;;;;;;4958042;29;20031;-91
2021/01/12 08:43:01;;;;;;;2.20;1.73;;;1.10;99.90;;;;;;4957456;29;20034;-90
2021/01/12 08:45:32;;;;;;;3.80;2.40;;;1.20;99.90;;;;;;4958829;28;20027;-90
2021/01/12 08:48:09;;;;;;;3.30;1.85;;;1.20;99.90;;;;;;4958221;29;20118;-90
2021/01/12 08:50:36;;;;;;;3.20;2.28;;;1.20;99.90;;;;;;4957583;29;20538;-90
2021/01/12 08:53:01;;;;;;;5.57;2.38;;;1.30;99.90;;;;;;4960211;28;20027;-90
2021/01/12 08:55:28;;;;;;;7.45;2.50;;;1.30;99.90;;;;;;4958957;29;20050;-90
2021/01/12 08:58:02;;;;;;;4.57;2.20;;;1.30;99.90;;;;;;4958690;29;20034;-90
2021/01/12 09:00:37;;;;;;;1.95;1.42;;;1.40;99.90;;;;;;4958904;28;20023;-89
2021/01/12 09:03:04;;;;;;;1.63;1.48;;;1.40;99.90;;;;;;4957097;29;20027;-89
2021/01/12 09:05:36;;;;;;;1.95;1.55;;;1.40;99.90;;;;;;4956735;29;20529;-90
2021/01/12 09:08:09;;;;;;;2.20;1.80;;;1.40;99.90;;;;;;4957290;28;20090;-90
2021/01/12 09:10:39;;;;;;;3.97;1.83;;;1.50;99.90;;;;;;4957519;28;20110;-90
2021/01/12 09:13:08;;;;;;;2.70;2.10;;;1.50;99.90;;;;;;4957450;28;20023;-89
2021/01/12 09:15:39;;;;;;;3.40;1.58;;;1.50;99.90;;;;;;4957629;28;20019;-88
2021/01/12 09:18:20;;;;;;;2.08;1.40;;;1.50;99.90;;;;;;4955395;29;20023;-88
2021/01/12 09:21:04;;;;;;;3.25;1.83;;;1.60;99.90;;;;;;4956589;28;20031;-88
2021/01/12 09:23:30;;;;;;;2.05;1.65;;;1.60;99.90;;;;;;4957243;28;20051;-88
2021/01/12 09:26:01;;;;;;;2.40;1.80;;;1.60;99.90;;;;;;4955317;29;20035;-89
2021/01/12 09:28:31;;;;;;;2.33;2.05;;;1.60;99.90;;;;;;4955105;29;20387;-87
2021/01/12 09:31:08;;;;;;;4.22;1.80;;;1.60;99.90;;;;;;4955020;29;20537;-91
2021/01/12 09:33:35;;;;;;;2.35;1.58;;;1.60;99.90;;;;;;4955037;29;20030;-88
2021/01/12 09:36:08;;;;;;;1.95;1.48;;;1.60;99.90;;;;;;4955163;28;20491;-87
2021/01/12 09:38:54;;;;;;;1.55;1.33;;;1.60;99.90;;;;;;4954455;29;20530;-88
2021/01/12 09:41:25;;;;;;;2.15;1.33;;;1.60;99.90;;;;;;4955189;29;20039;-88
2021/01/12 09:43:52;;;;;;;5.63;1.50;;;1.50;99.90;;;;;;4954838;29;20486;-87
2021/01/12 09:46:18;;;;;;;2.08;1.73;;;1.50;99.90;;;;;;4954688;29;20553;-87
2021/01/12 09:48:44;;;;;;;1.25;1.15;;;1.50;99.90;;;;;;4954566;29;20031;-87
2021/01/12 09:51:11;;;;;;;1.60;1.40;;;1.50;99.90;;;;;;4955904;28;20110;-87
2021/01/12 09:53:48;;;;;;;1.90;1.38;;;1.50;99.90;;;;;;4955229;29;20055;-87
2021/01/12 09:56:15;;;;;;;1.50;1.38;;;1.50;99.90;;;;;;4954674;29;20019;-87
2021/01/12 09:58:42;;;;;;;1.60;1.40;;;1.50;99.90;;;;;;4955878;28;20035;-87
2021/01/12 10:01:08;;;;;;;2.40;1.40;;;1.50;99.90;;;;;;4954690;29;20546;-89
2021/01/12 10:03:33;;;;;;;1.45;1.30;;;1.50;99.90;;;;;;4954404;29;20023;-86
2021/01/12 10:05:59;;;;;;;2.63;1.10;;;1.50;99.90;;;;;;4955740;28;20028;-86
2021/01/12 10:08:25;;;;;;;1.92;1.48;;;1.50;99.90;;;;;;4954739;29;20491;-88
2021/01/12 10:10:54;;;;;;;1.42;1.33;;;1.50;99.90;;;;;;4954771;29;20027;-88
2021/01/12 10:13:20;;;;;;;1.73;1.35;;;1.40;99.90;;;;;;4954694;29;20054;-85
2021/01/12 10:15:47;;;;;;;2.17;1.17;;;1.40;99.90;;;;;;4954353;29;20051;-87
2021/01/12 10:18:12;;;;;;;1.20;1.10;;;1.40;99.90;;;;;;4954351;29;20051;-88
2021/01/12 10:20:39;;;;;;;1.00;0.90;;;1.30;99.90;;;;;;4955945;28;20042;-87
2021/01/12 10:23:05;;;;;;;1.20;1.10;;;1.30;99.90;;;;;;4958614;29;20034;-88
2021/01/12 10:25:30;;;;;;;1.17;0.98;;;1.30;99.90;;;;;;4959200;28;20023;-87
2021/01/12 10:27:57;;;;;;;1.30;1.00;;;1.30;99.90;;;;;;4957711;29;20197;-86
2021/01/12 10:30:23;;;;;;;1.55;1.10;;;1.20;99.90;;;;;;4958010;29;20034;-87
2021/01/12 10:32:49;;;;;;;3.55;1.15;;;1.30;99.90;;;;;;4957645;29;20383;-87
2021/01/12 10:35:16;;;;;;;2.65;1.20;;;1.30;99.90;;;;;;4957864;29;20360;-86
2021/01/12 10:37:46;;;;;;;1.58;0.93;;;1.30;99.90;;;;;;4958543;28;20037;-85
2021/01/12 10:40:13;;;;;;;0.90;0.90;;;1.30;99.90;;;;;;4957513;29;20047;-85
2021/01/12 10:42:40;;;;;;;1.40;1.20;;;1.30;99.90;;;;;;4957489;29;20035;-86
2021/01/12 10:45:07;;;;;;;4.97;1.10;;;1.40;99.90;;;;;;4957359;29;20026;-87
2021/01/12 10:47:33;;;;;;;1.20;1.08;;;1.30;99.90;;;;;;4958631;28;20106;-86
2021/01/12 10:49:59;;;;;;;1.98;0.98;;;1.30;99.90;;;;;;4957417;29;20038;-84
2021/01/12 10:52:25;;;;;;;3.20;1.20;;;1.30;99.90;;;;;;4958507;28;20023;-84
2021/01/12 10:54:51;;;;;;;1.20;1.10;;;1.30;99.90;;;;;;4957028;29;20032;-85
2021/01/12 10:57:16;;;;;;;1.55;1.13;;;1.30;99.90;;;;;;4958326;28;20027;-85
2021/01/12 10:59:43;;;;;;;1.35;1.17;;;1.30;99.90;;;;;;4958243;28;20058;-84
2021/01/12 11:02:09;;;;;;;1.45;1.10;;;1.30;99.90;;;;;;4958265;28;20031;-86
2021/01/12 11:04:35;;;;;;;2.08;1.40;;;1.40;99.90;;;;;;4957176;29;20103;-88
2021/01/12 11:07:01;;;;;;;1.20;1.10;;;1.40;99.90;;;;;;4958401;29;20027;-85
2021/01/12 11:09:28;;;;;;;1.40;1.02;;;1.30;99.90;;;;;;4958121;28;20510;-85
2021/01/12 11:11:59;;;;;;;1.40;1.15;;;1.40;99.90;;;;;;4956627;29;20019;-87
2021/01/12 11:14:25;;;;;;;1.90;1.00;;;1.40;99.90;;;;;;4956714;29;20487;-86
2021/01/12 11:16:51;;;;;;;1.05;1.02;;;1.40;99.90;;;;;;4957929;28;20031;-86
2021/01/12 11:19:17;;;;;;;1.08;1.02;;;1.40;99.90;;;;;;4957878;28;20356;-86
2021/01/12 11:21:48;;;;;;;1.35;1.05;;;1.30;99.90;;;;;;4956553;29;20063;-89
2021/01/12 11:24:20;;;;;;;2.00;1.15;;;1.30;99.90;;;;;;4956548;29;20062;-87
2021/01/12 11:26:47;;;;;;;1.55;1.00;;;1.40;99.90;;;;;;4956613;29;20475;-86
2021/01/12 11:29:13;;;;;;;1.42;1.20;;;1.30;99.90;;;;;;4956582;29;20027;-87
2021/01/12 11:31:40;;;;;;;0.90;0.90;;;1.30;99.90;;;;;;4955668;28;20027;-86
2021/01/12 11:34:07;;;;;;;24.60;7.90;;;1.40;99.90;;;;;;4956703;29;20479;-87
2021/01/12 11:36:42;;;;;;;1.63;1.15;;;1.40;99.90;;;;;;4956749;28;20034;-86
2021/01/12 11:39:15;;;;;;;4.40;2.58;;;1.40;99.90;;;;;;4956393;29;20055;-86
2021/01/12 11:41:59;;;;;;;1.25;1.00;;;1.50;99.90;;;;;;4956566;29;20117;-86
2021/01/12 11:44:25;;;;;;;1.45;0.90;;;1.40;99.90;;;;;;4956737;29;20034;-86
2021/01/12 11:46:51;;;;;;;1.42;1.10;;;1.40;99.90;;;;;;4956710;29;20027;-88
2021/01/12 11:49:18;;;;;;;2.15;1.27;;;1.50;99.90;;;;;;4956843;29;20030;-88
2021/01/12 11:51:48;;;;;;;2.03;1.60;;;1.50;99.90;;;;;;4957620;28;20023;-87
2021/01/12 11:54:15;;;;;;;1.70;1.40;;;1.40;99.90;;;;;;4957796;28;20023;-86
2021/01/12 11:56:42;;;;;;;6.03;1.50;;;1.40;99.90;;;;;;4956076;29;20027;-86
2021/01/12 11:59:08;;;;;;;2.53;1.90;;;1.50;99.90;;;;;;4956179;29;20100;-87
2021/01/12 12:01:49;;;;;;;2.42;1.98;;;1.50;99.90;;;;;;4956516;29;20039;-85
2021/01/12 12:04:16;;;;;;;8.85;5.72;;;1.50;99.90;;;;;;4955892;29;20056;-86
2021/01/12 12:06:52;;;;;;;3.80;2.17;;;1.50;99.90;;;;;;4955800;29;20483;-85
2021/01/12 12:09:19;;;;;;;1.98;1.60;;;1.50;99.90;;;;;;4955965;29;20038;-86
2021/01/12 12:11:45;;;;;;;3.35;2.47;;;1.50;99.90;;;;;;4955936;29;20019;-86
2021/01/12 12:14:12;;;;;;;1.63;1.30;;;1.60;99.90;;;;;;4955875;29;20091;-85
2021/01/12 12:16:42;;;;;;;5.88;3.70;;;1.50;99.90;;;;;;4955770;29;20502;-86
2021/01/12 12:19:08;;;;;;;2.08;1.58;;;1.50;99.90;;;;;;4955749;29;20027;-86
2021/01/12 12:21:36;;;;;;;1.67;1.40;;;1.60;99.90;;;;;;4955950;29;20031;-86
2021/01/12 12:24:02;;;;;;;1.60;1.30;;;1.60;99.90;;;;;;4957078;28;20031;-87
2021/01/12 12:26:28;;;;;;;3.42;2.55;;;1.60;99.90;;;;;;4955746;29;20503;-87
2021/01/12 12:28:54;;;;;;;2.25;1.33;;;1.60;99.90;;;;;;4956254;29;20110;-90
2021/01/12 12:31:19;;;;;;;1.15;1.05;;;1.70;99.90;;;;;;4956185;29;20055;-88
2021/01/12 12:33:45;;;;;;;7.10;4.32;;;1.60;99.90;;;;;;4955602;29;20020;-87
2021/01/12 12:36:18;;;;;;;0.95;0.85;;;1.60;99.90;;;;;;4955577;28;20458;-87
2021/01/12 12:38:44;;;;;;;1.98;1.40;;;1.60;99.90;;;;;;4955310;29;20047;-87
2021/01/12 12:41:19;;;;;;;0.90;0.90;;;1.60;99.90;;;;;;4955353;29;20558;-86
2021/01/12 12:43:46;;;;;;;1.95;1.13;;;1.70;99.90;;;;;;4954934;28;20038;-86
2021/01/12 12:46:13;;;;;;;1.60;0.90;;;1.70;99.90;;;;;;4956381;28;20031;-85